createdAt,value
2018-04-22T00:02:02.089Z,12.70
2018-04-22T00:05:05.321Z,12.60
2018-04-22T00:08:08.566Z,12.50
2018-04-22T00:11:11.777Z,12.50
2018-04-22T00:14:14.985Z,12.30
2018-04-22T00:17:18.716Z,12.30
2018-04-22T00:20:22.299Z,12.20
2018-04-22T00:23:26.301Z,12.20
2018-04-22T00:26:29.494Z,12.10
2018-04-22T00:29:32.685Z,12.00
2018-04-22T00:32:35.950Z,12.00
2018-04-22T00:35:39.234Z,12.00
2018-04-22T00:38:42.467Z,11.90
2018-04-22T00:41:45.709Z,11.90
2018-04-22T00:44:49.721Z,11.70
2018-04-22T00:47:53.513Z,11.60
2018-04-22T00:50:56.680Z,11.60
2018-04-22T00:54:11.751Z,11.70
2018-04-22T00:57:16.165Z,11.70
2018-04-22T01:00:19.349Z,11.70
2018-04-22T01:03:22.838Z,11.80
2018-04-22T01:06:26.063Z,11.80
2018-04-22T01:09:29.256Z,11.60
2018-04-22T01:12:32.444Z,11.60
2018-04-22T01:15:35.636Z,11.70
2018-04-22T01:18:38.859Z,11.50
2018-04-22T01:21:42.284Z,11.50
2018-04-22T01:24:45.457Z,11.40
2018-04-22T01:27:48.721Z,11.30
2018-04-22T01:30:51.917Z,11.20
2018-04-22T01:33:55.120Z,11.30
2018-04-22T01:36:58.563Z,11.30
2018-04-22T01:40:01.742Z,11.40
2018-04-22T01:43:04.926Z,11.30
2018-04-22T01:46:08.107Z,11.30
2018-04-22T01:49:11.289Z,11.30
2018-04-22T01:52:14.473Z,11.20
2018-04-22T01:55:17.674Z,11.20
2018-04-22T01:58:20.879Z,11.20
2018-04-22T02:01:24.891Z,11.10
2018-04-22T02:04:28.109Z,11.10
2018-04-22T02:07:31.411Z,11.10
2018-04-22T02:10:34.613Z,11.00
2018-04-22T02:13:37.869Z,11.00
2018-04-22T02:16:42.291Z,11.00
2018-04-22T02:19:45.479Z,11.00
2018-04-22T02:22:49.531Z,11.00
2018-04-22T02:25:52.687Z,11.00
2018-04-22T02:28:55.935Z,10.90
2018-04-22T02:31:59.907Z,10.80
2018-04-22T02:35:03.968Z,10.80
2018-04-22T02:38:07.243Z,10.80
2018-04-22T02:41:10.442Z,10.80
2018-04-22T02:44:14.446Z,10.80
2018-04-22T02:47:17.884Z,10.70
2018-04-22T02:50:21.829Z,10.70
2018-04-22T02:53:24.986Z,10.70
2018-04-22T02:56:28.208Z,10.80
2018-04-22T02:59:31.375Z,10.80
2018-04-22T03:02:34.558Z,10.80
2018-04-22T03:05:37.778Z,10.70
2018-04-22T03:08:41.946Z,10.70
2018-04-22T03:11:45.111Z,10.70
2018-04-22T03:14:48.304Z,10.70
2018-04-22T03:17:51.473Z,10.60
2018-04-22T03:20:55.416Z,10.40
2018-04-22T03:23:58.629Z,10.40
2018-04-22T03:27:01.803Z,10.40
2018-04-22T03:30:04.984Z,10.40
2018-04-22T03:33:08.192Z,10.40
2018-04-22T03:36:11.365Z,10.40
2018-04-22T03:39:14.568Z,10.50
2018-04-22T03:42:17.744Z,10.60
2018-04-22T03:45:21.745Z,10.30
2018-04-22T03:48:25.723Z,10.20
2018-04-22T03:51:28.895Z,10.20
2018-04-22T03:54:32.476Z,10.10
2018-04-22T03:57:35.802Z,10.10
2018-04-22T04:00:39.032Z,10.00
2018-04-22T04:03:42.249Z,10.10
2018-04-22T04:06:45.536Z,10.20
2018-04-22T04:09:48.775Z,10.30
2018-04-22T04:12:52.038Z,10.20
2018-04-22T04:15:56.632Z,10.30
2018-04-22T04:19:11.745Z,10.30
2018-04-22T04:22:26.750Z,10.40
2018-04-22T04:25:42.701Z,10.30
2018-04-22T04:28:46.771Z,10.20
2018-04-22T04:31:49.920Z,10.20
2018-04-22T04:34:53.109Z,10.10
2018-04-22T04:37:57.201Z,10.00
2018-04-22T04:41:01.004Z,10.00
2018-04-22T04:44:04.202Z,10.00
2018-04-22T04:47:07.474Z,10.10
2018-04-22T04:50:10.675Z,10.20
2018-04-22T04:53:13.878Z,10.40
2018-04-22T04:56:18.081Z,10.40
2018-04-22T04:59:21.233Z,10.50
2018-04-22T05:02:25.170Z,10.80
2018-04-22T05:05:28.391Z,10.90
2018-04-22T05:08:31.588Z,10.80
2018-04-22T05:11:34.927Z,10.90
2018-04-22T05:14:38.138Z,10.80
2018-04-22T05:17:41.347Z,10.90
2018-04-22T05:20:44.518Z,10.90
2018-04-22T05:23:47.766Z,11.00
2018-04-22T05:26:50.917Z,11.20
2018-04-22T05:29:54.139Z,11.40
2018-04-22T05:32:57.332Z,11.40
2018-04-22T05:36:01.159Z,11.60
2018-04-22T05:39:07.113Z,11.40
2018-04-22T05:42:10.307Z,11.40
2018-04-22T05:45:13.557Z,11.30
2018-04-22T05:48:16.788Z,11.50
2018-04-22T05:51:19.992Z,11.60
2018-04-22T05:54:23.188Z,11.80
2018-04-22T05:57:26.471Z,12.10
2018-04-22T06:00:29.645Z,12.30
2018-04-22T06:03:32.882Z,12.50
2018-04-22T06:06:36.078Z,12.30
2018-04-22T06:09:39.280Z,12.20
2018-04-22T06:12:43.261Z,12.80
2018-04-22T06:15:46.436Z,12.80
2018-04-22T06:18:49.665Z,13.20
2018-04-22T06:21:52.828Z,13.50
2018-04-22T06:24:56.050Z,13.50
2018-04-22T06:27:59.255Z,13.70
2018-04-22T06:31:03.246Z,14.20
2018-04-22T06:34:06.482Z,14.20
2018-04-22T06:37:10.450Z,17.30
2018-04-22T06:40:13.670Z,17.30
2018-04-22T06:43:16.850Z,18.70
2018-04-22T06:46:20.070Z,19.80
2018-04-22T06:49:23.255Z,20.80
2018-04-22T06:52:26.437Z,21.80
2018-04-22T06:55:29.657Z,22.60
2018-04-22T06:58:33.671Z,22.00
2018-04-22T07:01:37.076Z,22.00
2018-04-22T07:04:41.059Z,22.20
2018-04-22T07:07:44.273Z,22.20
2018-04-22T07:10:47.493Z,22.70
2018-04-22T07:13:50.690Z,22.70
2018-04-22T07:16:53.887Z,23.20
2018-04-22T07:19:57.360Z,23.30
2018-04-22T07:23:01.361Z,25.20
2018-04-22T07:26:04.580Z,25.10
2018-04-22T07:29:07.872Z,25.70
2018-04-22T07:32:11.099Z,26.00
2018-04-22T07:35:14.949Z,26.50
2018-04-22T07:38:18.197Z,26.20
2018-04-22T07:41:21.417Z,26.10
2018-04-22T07:44:24.672Z,24.80
2018-04-22T07:47:27.892Z,24.20
2018-04-22T07:50:31.119Z,24.60
2018-04-22T07:53:35.737Z,25.80
2018-04-22T07:56:40.068Z,25.50
2018-04-22T07:59:44.065Z,23.70
2018-04-22T08:02:47.274Z,23.70
2018-04-22T08:05:50.452Z,22.80
2018-04-22T08:08:53.667Z,22.00
2018-04-22T08:11:57.786Z,21.50
2018-04-22T08:15:01.780Z,21.80
2018-04-22T08:18:05.063Z,21.70
2018-04-22T08:21:08.276Z,22.10
2018-04-22T08:24:11.483Z,22.30
2018-04-22T08:27:14.659Z,22.70
2018-04-22T08:30:17.863Z,22.80
2018-04-22T08:33:21.101Z,23.90
2018-04-22T08:36:24.350Z,24.10
2018-04-22T08:39:27.561Z,24.40
2018-04-22T08:42:31.605Z,25.70
2018-04-22T08:45:35.205Z,25.70
2018-04-22T08:48:39.180Z,26.10
2018-04-22T08:51:42.412Z,26.10
2018-04-22T08:54:46.452Z,25.80
2018-04-22T08:57:49.693Z,25.70
2018-04-22T09:00:53.692Z,27.50
2018-04-22T09:03:57.768Z,27.50
2018-04-22T09:07:01.006Z,27.90
2018-04-22T09:10:05.033Z,29.00
2018-04-22T09:13:08.268Z,28.90
2018-04-22T09:16:13.107Z,28.90
2018-04-22T09:19:16.402Z,28.90
2018-04-22T09:22:19.780Z,29.30
2018-04-22T09:25:23.103Z,29.50
2018-04-22T09:28:26.338Z,28.40
2018-04-22T09:31:30.942Z,25.80
2018-04-22T09:34:34.263Z,25.70
2018-04-22T09:37:37.524Z,24.90
2018-04-22T09:40:40.809Z,24.20
2018-04-22T09:43:44.029Z,23.70
2018-04-22T09:46:47.285Z,23.80
2018-04-22T09:49:51.259Z,26.10
2018-04-22T09:52:54.464Z,26.10
2018-04-22T09:55:57.663Z,27.30
2018-04-22T09:59:00.856Z,28.10
2018-04-22T10:02:04.097Z,27.60
2018-04-22T10:05:08.272Z,27.50
2018-04-22T10:08:12.337Z,28.40
2018-04-22T10:11:15.556Z,28.40
2018-04-22T10:14:18.822Z,28.90
2018-04-22T10:17:22.047Z,29.10
2018-04-22T10:20:25.330Z,29.30
2018-04-22T10:23:28.506Z,29.40
2018-04-22T10:26:32.406Z,29.20
2018-04-22T10:29:35.792Z,29.30
2018-04-22T10:32:39.820Z,29.00
2018-04-22T10:35:43.876Z,28.80
2018-04-22T10:38:47.140Z,28.80
2018-04-22T10:41:50.463Z,29.40
2018-04-22T10:44:53.734Z,30.40
2018-04-22T10:47:56.991Z,31.00
2018-04-22T10:51:00.354Z,30.50
2018-04-22T10:54:03.524Z,30.20
2018-04-22T10:57:08.004Z,30.80
2018-04-22T11:00:11.991Z,30.50
2018-04-22T11:03:15.308Z,30.50
2018-04-22T11:06:19.326Z,30.20
2018-04-22T11:09:22.598Z,30.20
2018-04-22T11:12:25.922Z,30.70
2018-04-22T11:15:29.120Z,30.90
2018-04-22T11:18:32.352Z,31.40
2018-04-22T11:21:35.725Z,31.50
2018-04-22T11:24:40.438Z,31.30
2018-04-22T11:27:43.758Z,31.30
2018-04-22T11:30:47.097Z,31.20
2018-04-22T11:33:50.306Z,31.10
2018-04-22T11:36:53.569Z,30.70
2018-04-22T11:39:56.791Z,30.70
2018-04-22T11:43:00.014Z,30.60
2018-04-22T11:46:03.248Z,30.10
2018-04-22T11:49:07.006Z,29.50
2018-04-22T11:52:10.257Z,28.50
2018-04-22T11:55:13.500Z,28.50
2018-04-22T11:58:17.515Z,28.30
2018-04-22T12:01:21.547Z,28.40
2018-04-22T12:04:25.503Z,28.30
2018-04-22T12:07:28.719Z,28.40
2018-04-22T12:10:31.956Z,28.10
2018-04-22T12:13:36.217Z,27.50
2018-04-22T12:16:39.430Z,27.40
2018-04-22T12:19:42.701Z,27.60
2018-04-22T12:22:45.913Z,27.60
2018-04-22T12:25:49.125Z,27.40
2018-04-22T12:28:52.324Z,27.10
2018-04-22T12:31:55.560Z,27.10
2018-04-22T12:34:58.790Z,26.70
2018-04-22T12:38:01.991Z,26.50
2018-04-22T12:41:06.427Z,26.90
2018-04-22T12:44:10.434Z,26.70
2018-04-22T12:47:13.657Z,26.70
2018-04-22T12:50:17.627Z,26.90
2018-04-22T12:53:20.848Z,26.90
2018-04-22T12:56:24.089Z,26.90
2018-04-22T12:59:27.305Z,27.00
2018-04-22T13:02:30.496Z,26.90
2018-04-22T13:05:33.770Z,26.80
2018-04-22T13:08:38.531Z,26.90
2018-04-22T13:11:41.732Z,26.90
2018-04-22T13:14:44.970Z,27.20
2018-04-22T13:17:48.215Z,27.20
2018-04-22T13:20:51.479Z,27.30
2018-04-22T13:23:54.742Z,27.30
2018-04-22T13:26:57.970Z,27.20
2018-04-22T13:30:01.211Z,27.30
2018-04-22T13:33:05.237Z,27.20
2018-04-22T13:36:08.457Z,27.20
2018-04-22T13:39:11.665Z,27.30
2018-04-22T13:42:14.920Z,27.30
2018-04-22T13:45:18.121Z,27.40
2018-04-22T13:48:21.488Z,27.40
2018-04-22T13:51:24.724Z,27.40
2018-04-22T13:54:28.002Z,27.40
2018-04-22T13:57:31.175Z,27.20
2018-04-22T14:00:34.602Z,27.00
2018-04-22T14:03:39.509Z,27.00
2018-04-22T14:06:42.786Z,26.90
2018-04-22T14:09:46.031Z,27.00
2018-04-22T14:12:49.996Z,26.70
2018-04-22T14:15:53.192Z,26.70
2018-04-22T14:18:56.419Z,26.50
2018-04-22T14:21:59.622Z,26.40
2018-04-22T14:25:02.888Z,26.30
2018-04-22T14:28:06.051Z,26.60
2018-04-22T14:31:09.255Z,26.70
2018-04-22T14:34:13.020Z,26.70
2018-04-22T14:37:16.220Z,26.70
2018-04-22T14:40:20.213Z,26.50
2018-04-22T14:43:23.473Z,26.50
2018-04-22T14:46:26.649Z,26.40
2018-04-22T14:49:29.894Z,26.40
2018-04-22T14:52:34.036Z,26.30
2018-04-22T14:55:38.819Z,26.30
2018-04-22T14:58:42.019Z,26.10
2018-04-22T15:01:45.294Z,26.00
2018-04-22T15:04:48.670Z,26.00
2018-04-22T15:07:51.890Z,25.90
2018-04-22T15:10:55.107Z,26.00
2018-04-22T15:13:58.307Z,25.90
2018-04-22T15:17:01.524Z,25.70
2018-04-22T15:20:04.833Z,25.40
2018-04-22T15:23:08.059Z,25.30
2018-04-22T15:26:11.247Z,25.10
2018-04-22T15:29:15.314Z,25.20
2018-04-22T15:32:18.508Z,25.20
2018-04-22T15:35:21.718Z,25.30
2018-04-22T15:38:24.984Z,25.30
2018-04-22T15:41:28.205Z,25.40
2018-04-22T15:44:31.342Z,25.40
2018-04-22T15:47:35.047Z,25.40
2018-04-22T15:50:38.249Z,25.40
2018-04-22T15:53:42.317Z,25.40
2018-04-22T15:56:46.300Z,25.30
2018-04-22T15:59:49.552Z,25.30
2018-04-22T16:02:53.478Z,25.10
2018-04-22T16:05:56.674Z,25.10
2018-04-22T16:08:59.845Z,25.00
2018-04-22T16:12:03.043Z,24.90
2018-04-22T16:15:07.001Z,24.90
2018-04-22T16:18:11.686Z,24.90
2018-04-22T16:21:14.902Z,24.80
2018-04-22T16:24:18.116Z,24.80
2018-04-22T16:27:21.346Z,24.60
2018-04-22T16:30:24.498Z,24.50
2018-04-22T16:33:27.796Z,24.50
2018-04-22T16:36:31.087Z,24.40
2018-04-22T16:39:35.225Z,24.30
2018-04-22T16:42:38.448Z,24.20
2018-04-22T16:45:41.670Z,24.10
2018-04-22T16:48:44.871Z,24.00
2018-04-22T16:51:48.084Z,24.00
2018-04-22T16:54:51.260Z,24.00
2018-04-22T16:57:54.460Z,23.90
2018-04-22T17:00:57.665Z,23.80
2018-04-22T17:04:00.871Z,23.80
2018-04-22T17:07:04.830Z,23.80
2018-04-22T17:10:08.045Z,23.70
2018-04-22T17:13:11.841Z,23.70
2018-04-22T17:16:15.108Z,23.60
2018-04-22T17:19:18.299Z,23.50
2018-04-22T17:22:22.296Z,23.20
2018-04-22T17:25:25.538Z,23.20
2018-04-22T17:28:28.745Z,23.10
2018-04-22T17:31:31.981Z,22.90
2018-04-22T17:34:35.274Z,22.80
2018-04-22T17:37:38.501Z,22.70
2018-04-22T17:40:42.473Z,22.60
2018-04-22T17:43:45.674Z,22.50
2018-04-22T17:46:48.893Z,22.50
2018-04-22T17:49:52.873Z,22.20
2018-04-22T17:52:56.164Z,22.10
2018-04-22T17:55:59.342Z,22.00
2018-04-22T17:59:02.576Z,21.80
2018-04-22T18:02:05.759Z,21.70
2018-04-22T18:05:09.785Z,21.50
2018-04-22T18:08:12.992Z,21.30
2018-04-22T18:11:16.217Z,21.10
2018-04-22T18:14:20.182Z,20.80
2018-04-22T18:17:23.444Z,20.80
2018-04-22T18:20:26.658Z,20.60
2018-04-22T18:23:29.834Z,20.50
2018-04-22T18:26:33.066Z,20.30
2018-04-22T18:29:36.312Z,20.20
2018-04-22T18:32:39.507Z,20.00
2018-04-22T18:35:42.724Z,19.90
2018-04-22T18:38:45.925Z,19.70
2018-04-22T18:41:49.120Z,19.70
2018-04-22T18:44:52.401Z,19.60
2018-04-22T18:47:55.588Z,19.40
2018-04-22T18:50:58.780Z,19.30
2018-04-22T18:54:02.000Z,19.20
2018-04-22T18:57:05.194Z,19.30
2018-04-22T19:00:08.893Z,19.40
2018-04-22T19:03:12.133Z,19.30
2018-04-22T19:06:16.093Z,19.50
2018-04-22T19:09:19.300Z,19.40
2018-04-22T19:12:22.600Z,19.30
2018-04-22T19:15:25.788Z,19.30
2018-04-22T19:18:29.033Z,19.10
2018-04-22T19:21:32.977Z,18.90
2018-04-22T19:24:36.393Z,18.90
2018-04-22T19:27:39.535Z,19.10
2018-04-22T19:30:43.632Z,18.60
2018-04-22T19:33:47.686Z,18.60
2018-04-22T19:36:50.888Z,18.60
2018-04-22T19:39:54.068Z,18.70
2018-04-22T19:42:57.300Z,18.60
2018-04-22T19:46:00.498Z,18.50
2018-04-22T19:49:03.713Z,18.50
2018-04-22T19:52:07.135Z,18.50
2018-04-22T19:55:11.123Z,18.40
2018-04-22T19:58:14.325Z,18.40
2018-04-22T20:01:18.296Z,18.50
2018-04-22T20:04:21.505Z,18.50
2018-04-22T20:07:24.723Z,18.50
2018-04-22T20:10:27.918Z,18.50
2018-04-22T20:13:31.100Z,18.30
2018-04-22T20:16:34.493Z,18.20
2018-04-22T20:19:37.640Z,18.10
2018-04-22T20:22:41.622Z,17.90
2018-04-22T20:25:45.627Z,17.80
2018-04-22T20:28:48.828Z,17.80
2018-04-22T20:31:52.807Z,18.00
2018-04-22T20:34:56.013Z,18.00
2018-04-22T20:37:59.202Z,17.90
2018-04-22T20:41:02.384Z,17.90
2018-04-22T20:44:05.698Z,17.90
2018-04-22T20:47:08.934Z,17.70
2018-04-22T20:50:12.183Z,17.80
2018-04-22T20:53:15.378Z,17.70
2018-04-22T20:56:18.616Z,17.50
2018-04-22T20:59:21.788Z,17.40
2018-04-22T21:02:25.045Z,17.20
2018-04-22T21:05:28.244Z,17.10
2018-04-22T21:08:31.425Z,17.00
2018-04-22T21:11:34.698Z,17.10
2018-04-22T21:14:38.635Z,16.90
2018-04-22T21:17:41.825Z,16.90
2018-04-22T21:20:45.002Z,16.90
2018-04-22T21:23:48.238Z,16.80
2018-04-22T21:26:51.519Z,16.80
2018-04-22T21:29:54.731Z,16.70
2018-04-22T21:32:57.928Z,16.60
2018-04-22T21:36:01.122Z,16.50
2018-04-22T21:39:05.164Z,16.50
2018-04-22T21:42:09.127Z,16.40
2018-04-22T21:45:12.325Z,16.40
2018-04-22T21:48:15.537Z,16.30
2018-04-22T21:51:18.730Z,16.30
2018-04-22T21:54:21.877Z,16.20
2018-04-22T21:57:25.926Z,16.00
2018-04-22T22:00:29.100Z,16.00
2018-04-22T22:03:33.055Z,16.00
2018-04-22T22:06:36.306Z,16.00
2018-04-22T22:09:40.707Z,15.80
2018-04-22T22:12:43.901Z,15.70
2018-04-22T22:15:47.062Z,15.60
2018-04-22T22:18:50.280Z,15.50
2018-04-22T22:21:53.450Z,15.40
2018-04-22T22:24:57.429Z,15.40
2018-04-22T22:28:00.613Z,15.40
2018-04-22T22:31:03.833Z,15.30
2018-04-22T22:34:07.014Z,15.30
2018-04-22T22:37:10.206Z,15.10
2018-04-22T22:40:13.394Z,15.00
2018-04-22T22:43:16.622Z,14.90
2018-04-22T22:46:19.823Z,14.80
2018-04-22T22:49:23.029Z,14.70
2018-04-22T22:52:26.179Z,14.70
2018-04-22T22:55:29.373Z,14.80
2018-04-22T22:58:32.552Z,14.60
2018-04-22T23:01:35.882Z,14.50
2018-04-22T23:04:39.142Z,14.40
2018-04-22T23:07:42.851Z,14.40
2018-04-22T23:10:46.776Z,14.50
2018-04-22T23:13:49.968Z,14.50
2018-04-22T23:16:53.130Z,14.50
2018-04-22T23:19:56.331Z,14.40
2018-04-22T23:22:59.524Z,14.40
2018-04-22T23:26:02.800Z,14.30
2018-04-22T23:29:06.005Z,14.40
2018-04-22T23:32:10.004Z,14.20
2018-04-22T23:35:13.204Z,14.20
2018-04-22T23:38:16.944Z,14.20
2018-04-22T23:41:20.153Z,14.20
2018-04-22T23:44:23.363Z,14.20
2018-04-22T23:47:26.502Z,14.20
2018-04-22T23:50:29.666Z,14.20
2018-04-22T23:53:32.979Z,14.20
2018-04-22T23:56:36.280Z,14.10
2018-04-22T23:59:39.456Z,14.00
